sensor_id;sensor_type;location;lat;lon;timestamp;pressure;altitude;pressure_sealevel;temperature;humidity
49759;BME280;70329;45.524;10.194;2023-07-30T00:02:16;99869.75;;;21.43;100.00
49759;BME280;70329;45.524;10.194;2023-07-30T00:04:42;99870.41;;;21.52;100.00
49759;BME280;70329;45.524;10.194;2023-07-30T00:07:07;99895.72;;;21.47;100.00
49759;BME280;70329;45.524;10.194;2023-07-30T00:09:33;99907.13;;;21.42;100.00
49759;BME280;70329;45.524;10.194;2023-07-30T00:11:58;99924.66;;;21.42;100.00
49759;BME280;70329;45.524;10.194;2023-07-30T00:14:23;99920.94;;;21.38;100.00
49759;BME280;70329;45.524;10.194;2023-07-30T00:16:49;99926.44;;;21.23;100.00
49759;BME280;70329;45.524;10.194;2023-07-30T00:19:14;99919.16;;;21.18;100.00
49759;BME280;70329;45.524;10.194;2023-07-30T00:21:39;99907.66;;;21.20;100.00
49759;BME280;70329;45.524;10.194;2023-07-30T00:24:05;99890.34;;;21.26;100.00
49759;BME280;70329;45.524;10.194;2023-07-30T00:26:30;99883.38;;;21.32;100.00
49759;BME280;70329;45.524;10.194;2023-07-30T00:28:55;99852.47;;;21.37;100.00
49759;BME280;70329;45.524;10.194;2023-07-30T00:31:21;99820.91;;;21.33;100.00
49759;BME280;70329;45.524;10.194;2023-07-30T00:33:46;99825.97;;;21.43;100.00
49759;BME280;70329;45.524;10.194;2023-07-30T00:36:12;99826.06;;;21.47;100.00
49759;BME280;70329;45.524;10.194;2023-07-30T00:38:37;99815.41;;;21.49;100.00
49759;BME280;70329;45.524;10.194;2023-07-30T00:41:02;99810.38;;;21.55;100.00
49759;BME280;70329;45.524;10.194;2023-07-30T00:43:28;99788.53;;;21.57;100.00
49759;BME280;70329;45.524;10.194;2023-07-30T00:45:53;99778.84;;;21.38;100.00
49759;BME280;70329;45.524;10.194;2023-07-30T00:48:19;99782.84;;;21.37;100.00
49759;BME280;70329;45.524;10.194;2023-07-30T00:50:44;99795.84;;;21.33;100.00
49759;BME280;70329;45.524;10.194;2023-07-30T00:53:11;99792.56;;;21.43;100.00
49759;BME280;70329;45.524;10.194;2023-07-30T00:55:39;99799.09;;;21.35;100.00
49759;BME280;70329;45.524;10.194;2023-07-30T00:58:04;99802.13;;;21.30;100.00
49759;BME280;70329;45.524;10.194;2023-07-30T01:00:30;99811.00;;;21.20;100.00
49759;BME280;70329;45.524;10.194;2023-07-30T01:02:57;99819.66;;;21.31;100.00
49759;BME280;70329;45.524;10.194;2023-07-30T01:05:22;99805.72;;;21.31;100.00
49759;BME280;70329;45.524;10.194;2023-07-30T01:07:48;99800.56;;;21.17;100.00
49759;BME280;70329;45.524;10.194;2023-07-30T01:10:14;99819.94;;;21.14;100.00
49759;BME280;70329;45.524;10.194;2023-07-30T01:12:41;99833.53;;;21.03;100.00
49759;BME280;70329;45.524;10.194;2023-07-30T01:15:08;99833.09;;;21.01;100.00
49759;BME280;70329;45.524;10.194;2023-07-30T01:17:34;99835.88;;;21.01;100.00
49759;BME280;70329;45.524;10.194;2023-07-30T01:20:00;99833.41;;;21.00;100.00
49759;BME280;70329;45.524;10.194;2023-07-30T01:22:25;99831.91;;;21.02;100.00
49759;BME280;70329;45.524;10.194;2023-07-30T01:24:51;99841.19;;;21.06;100.00
49759;BME280;70329;45.524;10.194;2023-07-30T01:27:23;99843.03;;;21.14;100.00
49759;BME280;70329;45.524;10.194;2023-07-30T01:29:56;99847.72;;;21.10;100.00
49759;BME280;70329;45.524;10.194;2023-07-30T01:32:26;99845.38;;;21.12;100.00
49759;BME280;70329;45.524;10.194;2023-07-30T01:34:54;99843.84;;;21.15;100.00
49759;BME280;70329;45.524;10.194;2023-07-30T01:37:20;99843.75;;;21.11;100.00
49759;BME280;70329;45.524;10.194;2023-07-30T01:39:48;99834.69;;;21.14;100.00
49759;BME280;70329;45.524;10.194;2023-07-30T01:42:13;99845.50;;;21.16;100.00
49759;BME280;70329;45.524;10.194;2023-07-30T01:44:39;99846.66;;;21.15;100.00
49759;BME280;70329;45.524;10.194;2023-07-30T01:47:04;99844.31;;;21.17;100.00
49759;BME280;70329;45.524;10.194;2023-07-30T01:49:30;99843.97;;;21.18;100.00
49759;BME280;70329;45.524;10.194;2023-07-30T01:51:55;99840.69;;;21.16;100.00
49759;BME280;70329;45.524;10.194;2023-07-30T01:54:20;99835.75;;;21.10;100.00
49759;BME280;70329;45.524;10.194;2023-07-30T01:56:46;99838.66;;;21.13;100.00
49759;BME280;70329;45.524;10.194;2023-07-30T01:59:11;99842.22;;;21.14;100.00
49759;BME280;70329;45.524;10.194;2023-07-30T02:01:36;99847.78;;;21.14;100.00
49759;BME280;70329;45.524;10.194;2023-07-30T02:04:02;99848.16;;;21.12;100.00
49759;BME280;70329;45.524;10.194;2023-07-30T02:06:27;99848.97;;;21.13;100.00
49759;BME280;70329;45.524;10.194;2023-07-30T02:08:52;99841.31;;;21.10;100.00
49759;BME280;70329;45.524;10.194;2023-07-30T02:11:18;99838.53;;;21.10;100.00
49759;BME280;70329;45.524;10.194;2023-07-30T02:13:43;99844.22;;;21.13;100.00
49759;BME280;70329;45.524;10.194;2023-07-30T02:16:08;99840.69;;;21.16;100.00
49759;BME280;70329;45.524;10.194;2023-07-30T02:18:34;99845.81;;;21.14;100.00
49759;BME280;70329;45.524;10.194;2023-07-30T02:20:59;99846.19;;;21.13;100.00
49759;BME280;70329;45.524;10.194;2023-07-30T02:23:25;99843.28;;;21.09;100.00
49759;BME280;70329;45.524;10.194;2023-07-30T02:25:50;99841.81;;;20.87;100.00
49759;BME280;70329;45.524;10.194;2023-07-30T02:28:16;99846.34;;;20.80;100.00
49759;BME280;70329;45.524;10.194;2023-07-30T02:30:41;99841.81;;;20.87;100.00
49759;BME280;70329;45.524;10.194;2023-07-30T02:33:07;99829.75;;;20.83;100.00
49759;BME280;70329;45.524;10.194;2023-07-30T02:35:32;99840.19;;;20.86;100.00
49759;BME280;70329;45.524;10.194;2023-07-30T02:37:57;99841.91;;;20.91;100.00
49759;BME280;70329;45.524;10.194;2023-07-30T02:40:23;99841.13;;;20.90;100.00
49759;BME280;70329;45.524;10.194;2023-07-30T02:42:48;99846.78;;;20.94;100.00
49759;BME280;70329;45.524;10.194;2023-07-30T02:45:13;99842.84;;;20.95;100.00
49759;BME280;70329;45.524;10.194;2023-07-30T02:47:39;99842.16;;;20.98;100.00
49759;BME280;70329;45.524;10.194;2023-07-30T02:52:31;99857.88;;;21.06;100.00
49759;BME280;70329;45.524;10.194;2023-07-30T02:54:56;99846.44;;;21.08;100.00
49759;BME280;70329;45.524;10.194;2023-07-30T02:57:22;99839.91;;;21.04;100.00
49759;BME280;70329;45.524;10.194;2023-07-30T02:59:47;99852.69;;;21.05;100.00
49759;BME280;70329;45.524;10.194;2023-07-30T03:02:12;99856.78;;;21.07;100.00
49759;BME280;70329;45.524;10.194;2023-07-30T03:04:38;99843.97;;;21.06;100.00
49759;BME280;70329;45.524;10.194;2023-07-30T03:07:03;99840.25;;;21.14;100.00
49759;BME280;70329;45.524;10.194;2023-07-30T03:09:29;99834.94;;;21.09;100.00
49759;BME280;70329;45.524;10.194;2023-07-30T03:11:54;99831.19;;;21.05;100.00
49759;BME280;70329;45.524;10.194;2023-07-30T03:14:20;99832.59;;;21.11;100.00
49759;BME280;70329;45.524;10.194;2023-07-30T03:16:46;99829.75;;;21.08;100.00
49759;BME280;70329;45.524;10.194;2023-07-30T03:19:12;99839.38;;;21.10;100.00
49759;BME280;70329;45.524;10.194;2023-07-30T03:21:38;99837.72;;;21.09;100.00
49759;BME280;70329;45.524;10.194;2023-07-30T03:24:03;99837.84;;;21.01;100.00
49759;BME280;70329;45.524;10.194;2023-07-30T03:26:28;99830.38;;;20.77;100.00
49759;BME280;70329;45.524;10.194;2023-07-30T03:28:54;99840.19;;;20.99;100.00
49759;BME280;70329;45.524;10.194;2023-07-30T03:31:19;99823.34;;;20.95;100.00
49759;BME280;70329;45.524;10.194;2023-07-30T03:33:44;99826.03;;;20.91;100.00
49759;BME280;70329;45.524;10.194;2023-07-30T03:36:11;99833.25;;;20.80;100.00
49759;BME280;70329;45.524;10.194;2023-07-30T03:38:36;99825.66;;;20.65;100.00
49759;BME280;70329;45.524;10.194;2023-07-30T03:41:02;99837.78;;;20.73;100.00
49759;BME280;70329;45.524;10.194;2023-07-30T03:43:29;99829.66;;;20.80;100.00
49759;BME280;70329;45.524;10.194;2023-07-30T03:45:54;99848.34;;;20.79;100.00
49759;BME280;70329;45.524;10.194;2023-07-30T03:48:20;99838.94;;;20.72;100.00
49759;BME280;70329;45.524;10.194;2023-07-30T03:50:45;99841.50;;;20.77;100.00
49759;BME280;70329;45.524;10.194;2023-07-30T03:53:10;99841.97;;;20.67;100.00
49759;BME280;70329;45.524;10.194;2023-07-30T03:55:36;99838.38;;;20.78;100.00
49759;BME280;70329;45.524;10.194;2023-07-30T03:58:01;99833.16;;;20.77;100.00
49759;BME280;70329;45.524;10.194;2023-07-30T04:00:27;99833.88;;;20.74;100.00
49759;BME280;70329;45.524;10.194;2023-07-30T04:02:54;99838.81;;;20.80;100.00
49759;BME280;70329;45.524;10.194;2023-07-30T04:05:19;99832.34;;;20.76;100.00
49759;BME280;70329;45.524;10.194;2023-07-30T04:07:45;99839.06;;;20.75;100.00
49759;BME280;70329;45.524;10.194;2023-07-30T04:10:10;99843.28;;;20.57;100.00
49759;BME280;70329;45.524;10.194;2023-07-30T04:12:35;99833.19;;;20.65;100.00
49759;BME280;70329;45.524;10.194;2023-07-30T04:15:01;99840.34;;;20.78;100.00
49759;BME280;70329;45.524;10.194;2023-07-30T04:17:26;99831.09;;;20.74;100.00
49759;BME280;70329;45.524;10.194;2023-07-30T04:19:52;99833.75;;;20.70;100.00
49759;BME280;70329;45.524;10.194;2023-07-30T04:22:17;99835.84;;;20.73;100.00
49759;BME280;70329;45.524;10.194;2023-07-30T04:24:42;99832.13;;;20.69;100.00
49759;BME280;70329;45.524;10.194;2023-07-30T04:27:08;99840.94;;;20.71;100.00
49759;BME280;70329;45.524;10.194;2023-07-30T04:29:33;99830.97;;;20.70;100.00
49759;BME280;70329;45.524;10.194;2023-07-30T04:31:58;99834.44;;;20.67;100.00
49759;BME280;70329;45.524;10.194;2023-07-30T04:34:24;99832.34;;;20.76;100.00
49759;BME280;70329;45.524;10.194;2023-07-30T04:36:49;99834.06;;;20.81;100.00
49759;BME280;70329;45.524;10.194;2023-07-30T04:39:14;99824.56;;;20.82;100.00
49759;BME280;70329;45.524;10.194;2023-07-30T04:41:40;99830.47;;;20.80;100.00
49759;BME280;70329;45.524;10.194;2023-07-30T04:44:05;99840.44;;;20.81;100.00
49759;BME280;70329;45.524;10.194;2023-07-30T04:46:31;99838.34;;;20.90;100.00
49759;BME280;70329;45.524;10.194;2023-07-30T04:48:58;99839.81;;;21.00;100.00
49759;BME280;70329;45.524;10.194;2023-07-30T04:51:23;99849.53;;;21.06;100.00
49759;BME280;70329;45.524;10.194;2023-07-30T04:53:49;99855.44;;;21.17;100.00
49759;BME280;70329;45.524;10.194;2023-07-30T04:56:14;99861.69;;;21.26;100.00
49759;BME280;70329;45.524;10.194;2023-07-30T04:58:39;99855.97;;;21.34;100.00
49759;BME280;70329;45.524;10.194;2023-07-30T05:01:05;99853.47;;;21.45;100.00
49759;BME280;70329;45.524;10.194;2023-07-30T05:03:30;99863.19;;;21.51;100.00
49759;BME280;70329;45.524;10.194;2023-07-30T05:05:55;99869.06;;;21.62;100.00
49759;BME280;70329;45.524;10.194;2023-07-30T05:08:21;99860.25;;;21.60;100.00
49759;BME280;70329;45.524;10.194;2023-07-30T05:10:46;99865.47;;;21.61;100.00
49759;BME280;70329;45.524;10.194;2023-07-30T05:13:11;99859.19;;;21.64;100.00
49759;BME280;70329;45.524;10.194;2023-07-30T05:15:38;99869.72;;;21.71;100.00
49759;BME280;70329;45.524;10.194;2023-07-30T05:18:03;99875.25;;;21.83;100.00
49759;BME280;70329;45.524;10.194;2023-07-30T05:20:29;99880.03;;;21.98;100.00
49759;BME280;70329;45.524;10.194;2023-07-30T05:22:54;99878.16;;;22.02;100.00
49759;BME280;70329;45.524;10.194;2023-07-30T05:25:20;99887.78;;;22.04;100.00
49759;BME280;70329;45.524;10.194;2023-07-30T05:27:45;99879.59;;;22.12;100.00
49759;BME280;70329;45.524;10.194;2023-07-30T05:30:11;99878.31;;;23.06;100.00
49759;BME280;70329;45.524;10.194;2023-07-30T05:32:36;99872.72;;;27.70;75.61
49759;BME280;70329;45.524;10.194;2023-07-30T05:35:01;99872.97;;;32.39;51.19
49759;BME280;70329;45.524;10.194;2023-07-30T05:37:27;99881.66;;;35.41;39.71
49759;BME280;70329;45.524;10.194;2023-07-30T05:39:52;99888.50;;;36.99;35.38
49759;BME280;70329;45.524;10.194;2023-07-30T05:42:17;99876.72;;;38.45;32.69
49759;BME280;70329;45.524;10.194;2023-07-30T05:44:43;99882.59;;;39.54;31.11
49759;BME280;70329;45.524;10.194;2023-07-30T05:47:08;99885.66;;;40.10;29.46
49759;BME280;70329;45.524;10.194;2023-07-30T05:49:34;99886.75;;;39.17;30.25
49759;BME280;70329;45.524;10.194;2023-07-30T05:51:59;99881.84;;;40.13;29.36
49759;BME280;70329;45.524;10.194;2023-07-30T05:54:24;99882.47;;;40.74;28.55
49759;BME280;70329;45.524;10.194;2023-07-30T05:56:49;99877.38;;;40.45;27.58
49759;BME280;70329;45.524;10.194;2023-07-30T05:59:16;99878.13;;;40.22;28.56
49759;BME280;70329;45.524;10.194;2023-07-30T06:01:41;99878.22;;;40.37;28.78
49759;BME280;70329;45.524;10.194;2023-07-30T06:04:07;99879.47;;;41.16;27.03
49759;BME280;70329;45.524;10.194;2023-07-30T06:06:32;99888.97;;;41.60;26.56
49759;BME280;70329;45.524;10.194;2023-07-30T06:08:59;99887.56;;;42.78;25.16
49759;BME280;70329;45.524;10.194;2023-07-30T06:11:25;99881.44;;;44.40;23.60
49759;BME280;70329;45.524;10.194;2023-07-30T06:13:51;99878.84;;;44.11;22.96
49759;BME280;70329;45.524;10.194;2023-07-30T06:16:18;99881.16;;;43.75;23.31
49759;BME280;70329;45.524;10.194;2023-07-30T06:18:46;99886.56;;;43.93;23.32
49759;BME280;70329;45.524;10.194;2023-07-30T06:21:11;99878.56;;;44.45;22.85
49759;BME280;70329;45.524;10.194;2023-07-30T06:23:37;99886.84;;;45.06;21.89
49759;BME280;70329;45.524;10.194;2023-07-30T06:26:03;99881.81;;;46.10;21.60
49759;BME280;70329;45.524;10.194;2023-07-30T06:28:29;99886.44;;;46.74;20.29
49759;BME280;70329;45.524;10.194;2023-07-30T06:30:54;99894.69;;;46.48;19.62
49759;BME280;70329;45.524;10.194;2023-07-30T06:33:19;99882.56;;;46.33;20.49
49759;BME280;70329;45.524;10.194;2023-07-30T06:35:45;99881.09;;;47.06;19.39
49759;BME280;70329;45.524;10.194;2023-07-30T06:38:10;99888.03;;;46.80;19.82
49759;BME280;70329;45.524;10.194;2023-07-30T06:40:35;99883.69;;;44.25;22.17
49759;BME280;70329;45.524;10.194;2023-07-30T06:43:02;99887.06;;;45.95;20.94
49759;BME280;70329;45.524;10.194;2023-07-30T06:45:29;99891.25;;;46.33;20.02
49759;BME280;70329;45.524;10.194;2023-07-30T06:47:54;99885.91;;;47.50;19.01
49759;BME280;70329;45.524;10.194;2023-07-30T06:50:19;99884.69;;;46.10;20.95
49759;BME280;70329;45.524;10.194;2023-07-30T06:52:45;99887.41;;;47.62;18.92
49759;BME280;70329;45.524;10.194;2023-07-30T06:55:10;99875.56;;;47.02;19.47
49759;BME280;70329;45.524;10.194;2023-07-30T06:57:35;99888.13;;;46.14;20.76
49759;BME280;70329;45.524;10.194;2023-07-30T07:00:01;99879.13;;;46.62;19.64
49759;BME280;70329;45.524;10.194;2023-07-30T07:02:27;99883.34;;;46.55;19.62
49759;BME280;70329;45.524;10.194;2023-07-30T07:04:53;99884.13;;;46.67;19.49
49759;BME280;70329;45.524;10.194;2023-07-30T07:07:19;99883.75;;;48.26;17.95
49759;BME280;70329;45.524;10.194;2023-07-30T07:09:44;99880.69;;;49.85;17.52
49759;BME280;70329;45.524;10.194;2023-07-30T07:12:10;99887.66;;;48.83;17.41
49759;BME280;70329;45.524;10.194;2023-07-30T07:14:35;99888.09;;;48.68;17.72
49759;BME280;70329;45.524;10.194;2023-07-30T07:17:00;99880.13;;;47.38;19.80
49759;BME280;70329;45.524;10.194;2023-07-30T07:19:26;99895.44;;;46.65;20.27
49759;BME280;70329;45.524;10.194;2023-07-30T07:21:51;99894.19;;;42.64;24.01
49759;BME280;70329;45.524;10.194;2023-07-30T07:24:17;99883.28;;;40.51;26.42
49759;BME280;70329;45.524;10.194;2023-07-30T07:26:42;99891.53;;;36.32;32.66
49759;BME280;70329;45.524;10.194;2023-07-30T07:29:07;99887.59;;;34.57;36.75
49759;BME280;70329;45.524;10.194;2023-07-30T07:31:33;99892.22;;;33.20;39.94
49759;BME280;70329;45.524;10.194;2023-07-30T07:33:58;99899.84;;;31.74;42.12
49759;BME280;70329;45.524;10.194;2023-07-30T07:36:24;99895.50;;;30.94;43.98
49759;BME280;70329;45.524;10.194;2023-07-30T07:38:49;99902.06;;;30.29;48.29
49759;BME280;70329;45.524;10.194;2023-07-30T07:41:16;99894.28;;;29.82;52.76
49759;BME280;70329;45.524;10.194;2023-07-30T07:43:42;99892.84;;;29.42;53.21
49759;BME280;70329;45.524;10.194;2023-07-30T07:46:07;99889.38;;;28.78;55.76
49759;BME280;70329;45.524;10.194;2023-07-30T07:48:41;99889.34;;;28.57;55.69
49759;BME280;70329;45.524;10.194;2023-07-30T07:51:11;99890.53;;;28.35;58.81
49759;BME280;70329;45.524;10.194;2023-07-30T07:53:37;99891.25;;;27.93;61.08
49759;BME280;70329;45.524;10.194;2023-07-30T07:56:03;99893.69;;;27.98;59.49
49759;BME280;70329;45.524;10.194;2023-07-30T07:58:28;99898.56;;;28.11;57.45
49759;BME280;70329;45.524;10.194;2023-07-30T08:00:54;99898.53;;;27.97;61.69
49759;BME280;70329;45.524;10.194;2023-07-30T08:03:21;99892.94;;;28.04;60.96
49759;BME280;70329;45.524;10.194;2023-07-30T08:05:46;99902.53;;;27.93;63.49
49759;BME280;70329;45.524;10.194;2023-07-30T08:08:13;99904.09;;;27.80;63.23
49759;BME280;70329;45.524;10.194;2023-07-30T08:10:39;99909.38;;;27.99;63.77
49759;BME280;70329;45.524;10.194;2023-07-30T08:13:06;99912.59;;;28.01;65.20
49759;BME280;70329;45.524;10.194;2023-07-30T08:15:32;99911.44;;;28.05;62.64
49759;BME280;70329;45.524;10.194;2023-07-30T08:17:58;99904.03;;;27.62;64.23
49759;BME280;70329;45.524;10.194;2023-07-30T08:20:23;99906.19;;;28.04;63.50
49759;BME280;70329;45.524;10.194;2023-07-30T08:22:48;99909.84;;;28.18;62.85
49759;BME280;70329;45.524;10.194;2023-07-30T08:25:14;99904.59;;;28.03;64.54
49759;BME280;70329;45.524;10.194;2023-07-30T08:27:39;99894.56;;;28.19;64.47
49759;BME280;70329;45.524;10.194;2023-07-30T08:30:05;99893.78;;;28.33;64.29
49759;BME280;70329;45.524;10.194;2023-07-30T08:32:32;99890.94;;;28.37;63.78
49759;BME280;70329;45.524;10.194;2023-07-30T08:34:58;99888.16;;;28.47;64.95
49759;BME280;70329;45.524;10.194;2023-07-30T08:37:23;99895.34;;;28.06;64.45
49759;BME280;70329;45.524;10.194;2023-07-30T08:39:49;99889.75;;;28.27;65.79
49759;BME280;70329;45.524;10.194;2023-07-30T08:42:14;99883.31;;;28.55;66.19
49759;BME280;70329;45.524;10.194;2023-07-30T08:44:40;99885.75;;;28.63;65.29
49759;BME280;70329;45.524;10.194;2023-07-30T08:47:05;99880.50;;;28.55;65.43
49759;BME280;70329;45.524;10.194;2023-07-30T08:49:31;99882.50;;;28.33;63.34
49759;BME280;70329;45.524;10.194;2023-07-30T08:51:58;99884.94;;;28.42;64.32
49759;BME280;70329;45.524;10.194;2023-07-30T08:54:25;99886.53;;;28.71;64.40
49759;BME280;70329;45.524;10.194;2023-07-30T08:56:54;99877.69;;;28.69;61.83
49759;BME280;70329;45.524;10.194;2023-07-30T08:59:21;99867.56;;;28.93;61.77
49759;BME280;70329;45.524;10.194;2023-07-30T09:01:51;99868.81;;;28.88;64.23
49759;BME280;70329;45.524;10.194;2023-07-30T09:04:17;99869.16;;;29.04;63.87
49759;BME280;70329;45.524;10.194;2023-07-30T09:06:43;99862.31;;;29.05;62.37
49759;BME280;70329;45.524;10.194;2023-07-30T09:09:10;99865.19;;;28.95;61.72
49759;BME280;70329;45.524;10.194;2023-07-30T09:11:36;99864.38;;;28.87;60.91
49759;BME280;70329;45.524;10.194;2023-07-30T09:14:02;99865.59;;;28.86;61.82
49759;BME280;70329;45.524;10.194;2023-07-30T09:16:28;99855.16;;;28.65;60.34
49759;BME280;70329;45.524;10.194;2023-07-30T09:18:53;99868.78;;;28.99;60.42
49759;BME280;70329;45.524;10.194;2023-07-30T09:21:20;99862.78;;;28.82;62.34
49759;BME280;70329;45.524;10.194;2023-07-30T09:23:54;99867.59;;;28.89;61.78
49759;BME280;70329;45.524;10.194;2023-07-30T09:26:19;99860.69;;;29.25;60.13
49759;BME280;70329;45.524;10.194;2023-07-30T09:28:44;99859.81;;;29.35;59.52
49759;BME280;70329;45.524;10.194;2023-07-30T09:31:10;99865.72;;;29.69;59.35
49759;BME280;70329;45.524;10.194;2023-07-30T09:33:40;99862.06;;;29.69;56.52
49759;BME280;70329;45.524;10.194;2023-07-30T09:36:07;99862.38;;;28.80;62.21
49759;BME280;70329;45.524;10.194;2023-07-30T09:38:38;99869.94;;;29.19;60.17
49759;BME280;70329;45.524;10.194;2023-07-30T09:41:04;99857.53;;;28.92;59.37
49759;BME280;70329;45.524;10.194;2023-07-30T09:43:32;99870.03;;;28.48;63.56
49759;BME280;70329;45.524;10.194;2023-07-30T09:46:05;99867.22;;;28.76;62.13
49759;BME280;70329;45.524;10.194;2023-07-30T09:48:32;99867.53;;;29.17;61.10
49759;BME280;70329;45.524;10.194;2023-07-30T09:51:04;99861.03;;;29.20;63.24
49759;BME280;70329;45.524;10.194;2023-07-30T09:53:31;99866.41;;;28.55;61.75
49759;BME280;70329;45.524;10.194;2023-07-30T09:56:04;99859.56;;;28.52;61.86
49759;BME280;70329;45.524;10.194;2023-07-30T09:58:30;99865.19;;;28.49;63.12
49759;BME280;70329;45.524;10.194;2023-07-30T10:00:58;99856.72;;;28.84;63.68
49759;BME280;70329;45.524;10.194;2023-07-30T10:03:25;99859.50;;;28.98;62.44
49759;BME280;70329;45.524;10.194;2023-07-30T10:05:54;99853.53;;;28.75;62.24
49759;BME280;70329;45.524;10.194;2023-07-30T10:08:23;99866.41;;;28.37;62.98
49759;BME280;70329;45.524;10.194;2023-07-30T10:10:51;99858.75;;;28.34;62.59
49759;BME280;70329;45.524;10.194;2023-07-30T10:13:19;99855.53;;;28.57;63.06
49759;BME280;70329;45.524;10.194;2023-07-30T10:15:47;99847.88;;;28.57;61.80
49759;BME280;70329;45.524;10.194;2023-07-30T10:18:14;99836.13;;;29.01;58.48
49759;BME280;70329;45.524;10.194;2023-07-30T10:20:40;99831.63;;;29.35;56.02
49759;BME280;70329;45.524;10.194;2023-07-30T10:23:06;99833.41;;;29.81;59.82
49759;BME280;70329;45.524;10.194;2023-07-30T10:25:48;99841.97;;;29.60;60.12
49759;BME280;70329;45.524;10.194;2023-07-30T10:28:46;99836.72;;;29.62;58.95
49759;BME280;70329;45.524;10.194;2023-07-30T10:31:11;99838.16;;;29.94;59.72
49759;BME280;70329;45.524;10.194;2023-07-30T10:36:12;99836.44;;;30.59;56.54
49759;BME280;70329;45.524;10.194;2023-07-30T10:38:38;99825.34;;;30.79;55.30
49759;BME280;70329;45.524;10.194;2023-07-30T10:41:14;99839.31;;;30.96;57.76
49759;BME280;70329;45.524;10.194;2023-07-30T10:43:49;99836.50;;;30.52;56.17
49759;BME280;70329;45.524;10.194;2023-07-30T10:46:17;99847.81;;;30.52;57.56
49759;BME280;70329;45.524;10.194;2023-07-30T10:48:44;99846.28;;;30.44;55.81
49759;BME280;70329;45.524;10.194;2023-07-30T10:51:15;99846.34;;;30.30;54.55
49759;BME280;70329;45.524;10.194;2023-07-30T10:53:45;99845.75;;;30.05;55.74
49759;BME280;70329;45.524;10.194;2023-07-30T10:56:12;99848.72;;;30.35;55.85
49759;BME280;70329;45.524;10.194;2023-07-30T10:58:38;99846.81;;;30.25;56.39
49759;BME280;70329;45.524;10.194;2023-07-30T11:01:05;99847.72;;;30.15;55.66
49759;BME280;70329;45.524;10.194;2023-07-30T11:03:32;99853.16;;;29.84;55.24
49759;BME280;70329;45.524;10.194;2023-07-30T11:06:01;99851.38;;;30.05;54.54
49759;BME280;70329;45.524;10.194;2023-07-30T11:08:41;99848.41;;;29.64;58.73
49759;BME280;70329;45.524;10.194;2023-07-30T11:11:09;99845.72;;;30.08;57.71
49759;BME280;70329;45.524;10.194;2023-07-30T11:13:44;99847.38;;;30.02;57.94
49759;BME280;70329;45.524;10.194;2023-07-30T11:16:15;99846.66;;;29.91;58.37
49759;BME280;70329;45.524;10.194;2023-07-30T11:18:42;99841.06;;;29.77;56.99
49759;BME280;70329;45.524;10.194;2023-07-30T11:21:11;99841.34;;;30.04;57.67
49759;BME280;70329;45.524;10.194;2023-07-30T11:23:40;99838.31;;;30.28;56.91
49759;BME280;70329;45.524;10.194;2023-07-30T11:26:12;99844.41;;;30.23;58.41
49759;BME280;70329;45.524;10.194;2023-07-30T11:28:39;99841.38;;;29.96;57.38
49759;BME280;70329;45.524;10.194;2023-07-30T11:31:06;99846.75;;;30.32;57.49
49759;BME280;70329;45.524;10.194;2023-07-30T11:33:33;99848.09;;;30.65;56.30
49759;BME280;70329;45.524;10.194;2023-07-30T11:36:01;99849.16;;;30.81;55.90
49759;BME280;70329;45.524;10.194;2023-07-30T11:38:27;99846.91;;;31.03;54.79
49759;BME280;70329;45.524;10.194;2023-07-30T11:40:54;99851.66;;;30.72;55.48
49759;BME280;70329;45.524;10.194;2023-07-30T11:43:20;99848.81;;;30.28;56.07
49759;BME280;70329;45.524;10.194;2023-07-30T11:45:46;99840.34;;;29.62;58.10
49759;BME280;70329;45.524;10.194;2023-07-30T11:48:12;99842.13;;;29.24;60.23
49759;BME280;70329;45.524;10.194;2023-07-30T11:50:48;99842.91;;;30.05;57.99
49759;BME280;70329;45.524;10.194;2023-07-30T11:53:14;99836.91;;;29.99;57.63
49759;BME280;70329;45.524;10.194;2023-07-30T11:55:41;99821.34;;;30.28;55.61
49759;BME280;70329;45.524;10.194;2023-07-30T11:58:08;99821.97;;;29.98;56.53
49759;BME280;70329;45.524;10.194;2023-07-30T12:00:38;99830.97;;;29.83;56.22
49759;BME280;70329;45.524;10.194;2023-07-30T12:03:06;99825.56;;;30.06;56.18
49759;BME280;70329;45.524;10.194;2023-07-30T12:05:36;99823.59;;;30.03;55.90
49759;BME280;70329;45.524;10.194;2023-07-30T12:08:02;99823.47;;;29.55;58.90
49759;BME280;70329;45.524;10.194;2023-07-30T12:10:49;99822.53;;;29.76;59.35
49759;BME280;70329;45.524;10.194;2023-07-30T12:13:16;99818.78;;;29.93;57.80
49759;BME280;70329;45.524;10.194;2023-07-30T12:15:44;99820.13;;;29.81;57.56
49759;BME280;70329;45.524;10.194;2023-07-30T12:18:09;99819.50;;;29.42;57.77
49759;BME280;70329;45.524;10.194;2023-07-30T12:20:34;99814.34;;;29.12;57.54
49759;BME280;70329;45.524;10.194;2023-07-30T12:23:01;99813.13;;;29.27;57.15
49759;BME280;70329;45.524;10.194;2023-07-30T12:25:28;99818.06;;;29.82;56.48
49759;BME280;70329;45.524;10.194;2023-07-30T12:27:54;99814.66;;;30.08;55.99
49759;BME280;70329;45.524;10.194;2023-07-30T12:30:19;99816.72;;;30.52;54.44
49759;BME280;70329;45.524;10.194;2023-07-30T12:32:44;99816.72;;;30.52;55.82
49759;BME280;70329;45.524;10.194;2023-07-30T12:35:10;99801.69;;;30.62;50.84
49759;BME280;70329;45.524;10.194;2023-07-30T12:37:35;99809.88;;;30.90;51.06
49759;BME280;70329;45.524;10.194;2023-07-30T12:40:02;99802.78;;;31.12;52.02
49759;BME280;70329;45.524;10.194;2023-07-30T12:42:28;99795.66;;;30.97;52.80
49759;BME280;70329;45.524;10.194;2023-07-30T12:44:53;99791.81;;;30.40;53.87
49759;BME280;70329;45.524;10.194;2023-07-30T12:47:19;99795.50;;;30.37;54.60